createdAt,value
2018-01-27T00:08:23.135Z,6.86
2018-01-27T00:18:23.206Z,7.04
2018-01-27T00:28:23.153Z,6.9
2018-01-27T00:38:23.243Z,6.98
2018-01-27T00:48:23.213Z,6.99
2018-01-27T00:58:23.146Z,7.04
2018-01-27T01:08:23.217Z,7.07
2018-01-27T01:18:23.251Z,6.91
2018-01-27T01:28:23.243Z,6.87
2018-01-27T01:38:23.300Z,6.84
2018-01-27T01:48:23.288Z,6.91
2018-01-27T01:58:23.257Z,6.87
2018-01-27T02:08:23.293Z,6.98
2018-01-27T02:18:23.265Z,6.94
2018-01-27T02:28:23.335Z,6.94
2018-01-27T02:38:23.880Z,7.01
2018-01-27T02:48:23.348Z,6.86
2018-01-27T02:58:23.295Z,6.73
2018-01-27T03:08:23.306Z,6.76
2018-01-27T03:18:23.309Z,6.91
2018-01-27T03:28:23.274Z,6.66
2018-01-27T03:38:23.319Z,6.68
2018-01-27T03:48:23.319Z,6.66
2018-01-27T03:58:23.366Z,6.38
2018-01-27T04:08:23.338Z,6.4
2018-01-27T04:18:23.381Z,6.48
2018-01-27T04:28:23.333Z,6.5
2018-01-27T04:38:23.420Z,6.51
2018-01-27T04:48:23.353Z,6.46
2018-01-27T04:58:23.463Z,6.53
2018-01-27T05:08:23.405Z,6.63
2018-01-27T05:18:23.466Z,6.54
2018-01-27T05:28:23.427Z,6.76
2018-01-27T05:38:23.373Z,6.66
2018-01-27T05:48:23.448Z,6.71
2018-01-27T05:58:23.401Z,6.79
2018-01-27T06:08:23.479Z,6.8
2018-01-27T06:18:23.442Z,6.71
2018-01-27T06:28:23.484Z,6.72
2018-01-27T06:38:23.429Z,6.63
2018-01-27T06:48:23.517Z,6.66
2018-01-27T06:58:23.500Z,6.81
2018-01-27T07:08:23.614Z,6.81
2018-01-27T07:18:23.479Z,6.79
2018-01-27T07:28:23.587Z,6.73
2018-01-27T07:38:23.511Z,6.9
2018-01-27T07:48:23.489Z,6.89
2018-01-27T07:58:23.557Z,7.05
2018-01-27T08:08:23.481Z,7.04
2018-01-27T08:18:23.637Z,7.12
2018-01-27T08:28:23.564Z,7.16
2018-01-27T08:38:23.588Z,7.27
2018-01-27T08:48:23.564Z,7.44
2018-01-27T08:58:23.594Z,7.55
2018-01-27T09:08:23.683Z,7.81
2018-01-27T09:18:23.583Z,7.82
2018-01-27T09:28:23.654Z,7.92
2018-01-27T09:38:23.623Z,7.99
2018-01-27T09:48:33.080Z,7.84
2018-01-27T09:58:23.709Z,8.03
2018-01-27T10:08:23.609Z,8.3
2018-01-27T10:18:23.676Z,8.15
2018-01-27T10:28:23.676Z,8.42
2018-01-27T10:38:23.710Z,8.54
2018-01-27T10:48:23.711Z,8.79
2018-01-27T10:58:23.797Z,8.3
2018-01-27T11:08:23.716Z,8.03
2018-01-27T11:18:23.768Z,7.96
2018-01-27T11:28:23.734Z,8.12
2018-01-27T11:38:23.800Z,8.18
2018-01-27T11:48:23.741Z,8.29
2018-01-27T11:58:23.809Z,8.5
2018-01-27T12:08:23.768Z,8.6
2018-01-27T12:18:23.724Z,8.5
2018-01-27T12:28:23.777Z,8.55
2018-01-27T12:38:23.780Z,8.69
2018-01-27T12:48:23.814Z,8.86
2018-01-27T12:58:23.792Z,8.91
2018-01-27T13:08:23.818Z,8.76
2018-01-27T13:18:23.814Z,8.96
2018-01-27T13:28:23.860Z,8.93
2018-01-27T13:38:23.844Z,8.69
2018-01-27T13:48:23.826Z,8.48
2018-01-27T13:58:23.842Z,8.32
2018-01-27T14:08:23.919Z,8.3
2018-01-27T14:18:23.921Z,8.36
2018-01-27T14:28:23.902Z,8.57
2018-01-27T14:38:23.876Z,8.32
2018-01-27T14:48:23.997Z,8.2
2018-01-27T14:58:24.156Z,8.14
2018-01-27T15:08:24.017Z,8.04
2018-01-27T15:18:23.962Z,7.84
2018-01-27T15:28:23.896Z,7.45
2018-01-27T15:38:23.930Z,7.24
2018-01-27T15:48:23.902Z,7.01
2018-01-27T15:58:23.972Z,6.95
2018-01-27T16:08:23.940Z,6.84
2018-01-27T16:18:24.221Z,6.71
2018-01-27T16:28:23.975Z,6.53
2018-01-27T16:38:24.007Z,6.28
2018-01-27T16:48:23.969Z,6.14
2018-01-27T16:58:24.074Z,6.21
2018-01-27T17:08:24.052Z,6.13
2018-01-27T17:18:24.024Z,6.28
2018-01-27T17:28:24.109Z,6.51
2018-01-27T17:38:24.075Z,6.77
2018-01-27T17:48:24.160Z,6.97
2018-01-27T17:58:24.052Z,6.86
2018-01-27T18:08:24.024Z,6.91
2018-01-27T18:18:24.045Z,7.07
2018-01-27T18:28:24.088Z,7.07
2018-01-27T18:38:24.118Z,7.04
2018-01-27T18:48:24.061Z,7.08
2018-01-27T18:58:24.136Z,7.05
2018-01-27T19:08:24.105Z,7.13
2018-01-27T19:18:24.160Z,7.27
2018-01-27T19:28:24.126Z,7.16
2018-01-27T19:38:24.277Z,7.15
2018-01-27T19:48:24.156Z,7.15
2018-01-27T19:58:24.214Z,7.31
2018-01-27T20:08:24.182Z,7.45
2018-01-27T20:18:24.133Z,7.58
2018-01-27T20:28:24.230Z,7.74
2018-01-27T20:38:24.214Z,7.92
2018-01-27T20:48:24.193Z,7.89
2018-01-27T20:58:24.257Z,7.94
2018-01-27T21:08:24.496Z,7.78
2018-01-27T21:18:24.373Z,7.85
2018-01-27T21:28:24.216Z,7.89
2018-01-27T21:38:24.261Z,7.89
2018-01-27T21:48:24.283Z,7.63
2018-01-27T21:58:24.338Z,7.5
2018-01-27T22:08:24.258Z,7.2
2018-01-27T22:18:24.358Z,6.73
2018-01-27T22:28:24.325Z,6.14
2018-01-27T22:38:24.368Z,6.1
2018-01-27T22:48:24.339Z,5.83
2018-01-27T22:58:24.283Z,5.85
2018-01-27T23:08:24.323Z,5.66
2018-01-27T23:18:24.318Z,5.82
2018-01-27T23:28:24.337Z,5.78
2018-01-27T23:38:24.306Z,5.71
2018-01-27T23:48:30.969Z,5.77
2018-01-27T23:58:24.325Z,5.6
